Αρχική σελίδα
METAR-TAF:

METAR-TAF

Αεροδρόμια :

Garden City, Κάνσας, Ηνωμένες Πολιτείες Αμερικής

γεωγραφικό πλάτος: 37-55-39N, γεωγραφικό μήκος: 100-43-28W, υψόμετρο: 881 μ

Παρών καιρός

Η αναφορά έγινε 39 λεπτά πριν, στις 00:54 UTC
Άνεμος 16 kt από Β/BA
Θερμοκρασία -4°C
Υγρασία 86%
Πίεση 1025 hPa
Ορατότητα: 16.1 χλμ
Νεφοσκεπής σε ύψος 1500 πόδια

METAR: KGCK 180054Z 03016KT 10SM OVC015 M04/M06 A3028 RMK AO2 SLP278 I1001 T10391061

Χρόνος: 19:33 (01:33 UTC)

Πρόγνωση Καιρού

Η αναφορά έγινε 2 ώρες και 5 λεπτά πριν, στις 23:28 UTC
Η πρόγνωση ισχύει από τις 18 στις 00 UTC έως τις 18 στις 24 UTC
Άνεμος 14 kt από Β/BA
Ορατότητα: 10 χλμ
Νεφοσκεπής σε ύψος 1500 πόδια
Από 18 στις 1000 UTC
Άνεμος 8 kt από Β
Ορατότητα: 10 χλμ
Νεφοσκεπής σε ύψος 4000 πόδια

TAF: KGCK 172328Z 1800/1824 02014KT P6SM OVC015 FM181000 01008KT P6SM OVC040

Μετεωρολογικές αναφορές και προγνώσεις για περισσότερα από 4000 αεροδρόμια (δελτία METAR και TAF).

Οι διαθέσιμοι σταθμοί απεικονίζονται στο χάρτη με κίτρινες και κόκκινες κουκκίδες.

Μετακινήστε το ποντίκι πάνω από τις κουκκίδες για να δείτε το όνομα του σταθμού.

Στη συνέχεια, κάντε κλικ για να δείτε τις μετεωρολογικές αναφορές και τις προγνώσεις καιρού.

Για να αλλάξετε το χάρτη: κάντε κλικ στα πράσινα κουμπιά με τον μαύρο σταυρό για να ζουμάρετε, στο πράσινο κουμπί με την παύλα για να αφαιρέσετε το ζουμ ή στα πράσινα βέλη για να αντιπαραβάλλετε χάρτες.


METAR-TAF: